Погода Бейсутерна 2 недели

Западная Австралия, Австралия

02 - 15 февраля
  • 02февраля
    Сегодня
    +18°
    +34°
    Ясно и безоблачно
    ВремяПогодаТемператураВлажностьДавлениеВетер, м/сВероятность осадков
    02:00Ясно и безоблачно+19°C51 %757 мм3.3 м/с5 %
    05:00Ясно и безоблачно+16°C52 %758 мм3.0 м/с5 %
    08:00Ясно и безоблачно+18°C46 %759 мм3.7 м/с5 %
    11:00Ясно и безоблачно+27°C29 %758 мм3.5 м/с5 %
    14:00Ясно и безоблачно+32°C18 %756 мм3.6 м/с5 %
    17:00Ясно и безоблачно+33°C15 %755 мм4.3 м/с5 %
    20:00Ясно и безоблачно+29°C24 %756 мм2.7 м/с5 %
    23:00Ясно и безоблачно+25°C34 %756 мм3.8 м/с5 %
  • 03февраля
    Пятница
    +23°
    +35°
    Ясно и безоблачно
    ВремяПогодаТемператураВлажностьДавлениеВетер, м/сВероятность осадков
    02:00Ясно и безоблачно+21°C57 %755 мм4.1 м/с5 %
    05:00Ясно и безоблачно+19°C68 %756 мм4.2 м/с5 %
    08:00Ясно и безоблачно+21°C56 %757 мм4.8 м/с5 %
    11:00Ясно и безоблачно+29°C32 %756 мм3.8 м/с5 %
    14:00Ясно и безоблачно+33°C20 %754 мм3.3 м/с5 %
    17:00Небольшая облачность+34°C21 %753 мм3.3 м/с5 %
    20:00Облачно с прояснениями+30°C22 %753 мм2.0 м/с5 %
    23:00Облачно с прояснениями+27°C28 %753 мм3.0 м/с5 %
  • 04февраля
    Суббота
    +25°
    +38°
    Ясно и безоблачно
    ВремяПогодаТемператураВлажностьДавлениеВетер, м/сВероятность осадков
    02:00Ясно и безоблачно+25°C33 %752 мм3.5 м/с5 %
    05:00Облачно с прояснениями+23°C35 %753 мм3.5 м/с5 %
    08:00Ясно и безоблачно+27°C31 %754 мм4.4 м/с3 %
    11:00Ясно и безоблачно+33°C20 %753 мм3.6 м/с3 %
    14:00Ясно и безоблачно+37°C16 %751 мм3.4 м/с4 %
    17:00Ясно и безоблачно+36°C19 %750 мм3.9 м/с5 %
    20:00Ясно и безоблачно+31°C25 %751 мм2.4 м/с5 %
    23:00Практически безоблачно+28°C26 %751 мм1.9 м/с5 %
  • 05февраля
    Воскресенье
    +22°
    +35°
    Ясно и безоблачно
    ВремяПогодаТемператураВлажностьДавлениеВетер, м/сВероятность осадков
    02:00Облачно с прояснениями+26°C31 %751 мм1.7 м/с5 %
    05:00Облачно с прояснениями+26°C25 %751 мм2.3 м/с5 %
    08:00Облачно с прояснениями+30°C20 %752 мм3.1 м/с5 %
    11:00Практически безоблачно+34°C17 %752 мм1.6 м/с5 %
    14:00Ясно и безоблачно+35°C21 %751 мм2.7 м/с5 %
    17:00Ясно и безоблачно+34°C31 %750 мм3.9 м/с4 %
    20:00Ясно и безоблачно+29°C50 %751 мм2.0 м/с5 %
    23:00Ясно и безоблачно+27°C43 %752 мм1.9 м/с5 %
  • 06февраля
    Понедельник
    +22°
    +36°
    Ясно и безоблачно
    ВремяПогодаТемператураВлажностьДавлениеВетер, м/сВероятность осадков
    02:00Ясно и безоблачно+24°C50 %752 мм1.4 м/с4 %
    05:00Ясно и безоблачно+22°C55 %753 мм1.8 м/с6 %
    08:00Ясно и безоблачно+25°C47 %754 мм2.6 м/с5 %
    11:00Ясно и безоблачно+33°C25 %753 мм2.6 м/с5 %
    14:00Ясно и безоблачно+35°C29 %751 мм3.5 м/с5 %
    17:00Ясно и безоблачно+33°C38 %751 мм4.5 м/с5 %
    20:00Ясно и безоблачно+29°C49 %752 мм1.8 м/с5 %
    23:00Ясно и безоблачно+27°C41 %752 мм2.5 м/с5 %
Мы используем cookies
Соглашаюсь